Clementsville, Idaho
Current Conditions -  °F | °C
As of 12:53 PM on Sunday 21 Dec 2014 (Local Time) from KRXE Reporting Station
Clear Clear  
Wind Chill: 32°   Ceiling: Unl
Heat Index: 41°   Visibility: 10mi
Dew Point: 37°   Wind: 18mph
Humidity: 86%   Direction: 260°W
Pressure: 29.69"   Gusts: NA
Location:  43.8021°N, 111.594°W
Report Text: KRXE 211953Z AUTO 26016KT 10SM CLR 05/03 A2969 RMK AO2 SLP062 T00500028
Loading
Personal Weather Stations






























Interactive Weather Map New forecast layout! Learn more

10-Day Weather Forecast

Advertisements
Track Severe Weather on mobile